Weather Data

Pearl Creek Farm: 8878 N Farm Road 75, Walnut Grove MO 65770

<== Previous Day (Friday 25 Sep 2015) | Next Day (Sunday 27 Sep 2015) ==>

Summary Precipitation Data For Saturday 26 September 2015

ElementValueUnits
Precipitation0"
Notes(none)
SourcePearl Creek Farm

Summary Temperature Data For Saturday 26 September 2015

ElementValueUnits
High Temperature79 oF
Low Temperature55 oF
Average Temperature67 oF
High Humidity92 %
Low Humidity56 %
Average Humidity78 %
SourcePearl Creek Farm

Detail Temperature Data For Saturday 26 September 2015

Date / TimeTemp (F)RH (%)Dew Pt (F)Report Date / TimeSource
2015-09-26 00:00:00 62 86 57.8 2015-11-18 13:17:03 Pearl Creek Farm
2015-09-26 00:30:00 61 86 56.6 2015-11-18 13:17:03 Pearl Creek Farm
2015-09-26 01:00:00 61 86 56.8 2015-11-18 13:17:03 Pearl Creek Farm
2015-09-26 01:30:00 60 86 55.8 2015-11-18 13:17:03 Pearl Creek Farm
2015-09-26 02:00:00 59 87 55.0 2015-11-18 13:17:03 Pearl Creek Farm
2015-09-26 02:30:00 59 87 55.0 2015-11-18 13:17:03 Pearl Creek Farm
2015-09-26 03:00:00 59 87 55.1 2015-11-18 13:17:03 Pearl Creek Farm
2015-09-26 03:30:00 58 87 54.2 2015-11-18 13:17:03 Pearl Creek Farm
2015-09-26 04:00:00 58 87 54.0 2015-11-18 13:17:03 Pearl Creek Farm
2015-09-26 04:30:00 57 88 53.3 2015-11-18 13:17:03 Pearl Creek Farm
2015-09-26 05:00:00 57 88 53.3 2015-11-18 13:17:03 Pearl Creek Farm
2015-09-26 05:30:00 57 88 53.3 2015-11-18 13:17:03 Pearl Creek Farm
2015-09-26 06:00:00 56 88 52.5 2015-11-18 13:17:03 Pearl Creek Farm
2015-09-26 06:30:00 56 88 52.3 2015-11-18 13:17:03 Pearl Creek Farm
2015-09-26 07:00:00 55 88 51.4 2015-11-18 13:17:03 Pearl Creek Farm
2015-09-26 07:30:00 55 88 51.5 2015-11-18 13:17:03 Pearl Creek Farm
2015-09-26 08:00:00 55 89 51.8 2015-11-18 13:17:03 Pearl Creek Farm
2015-09-26 08:30:00 56 91 53.3 2015-11-18 13:17:03 Pearl Creek Farm
2015-09-26 09:00:00 58 92 55.5 2015-11-18 13:17:03 Pearl Creek Farm
2015-09-26 09:30:00 60 91 57.4 2015-11-18 13:17:03 Pearl Creek Farm
2015-09-26 10:00:00 63 89 59.5 2015-11-18 13:17:03 Pearl Creek Farm
2015-09-26 10:30:00 66 83 60.7 2015-11-18 13:17:03 Pearl Creek Farm
2015-09-26 11:00:00 69 77 61.5 2015-11-18 13:17:03 Pearl Creek Farm
2015-09-26 11:30:00 71 76 62.9 2015-11-18 13:17:03 Pearl Creek Farm
2015-09-26 12:00:00 73 72 63.4 2015-11-18 13:17:03 Pearl Creek Farm
2015-09-26 12:30:00 75 68 63.5 2015-11-18 13:17:03 Pearl Creek Farm
2015-09-26 13:00:00 76 65 63.4 2015-11-18 13:17:03 Pearl Creek Farm
2015-09-26 13:30:00 77 62 62.8 2015-11-18 13:17:03 Pearl Creek Farm
2015-09-26 14:00:00 78 58 62.0 2015-11-18 13:17:03 Pearl Creek Farm
2015-09-26 14:30:00 79 58 62.7 2015-11-18 13:17:03 Pearl Creek Farm
2015-09-26 15:00:00 79 56 62.0 2015-11-18 13:17:03 Pearl Creek Farm
2015-09-26 15:30:00 79 57 62.2 2015-11-18 13:17:03 Pearl Creek Farm
2015-09-26 16:00:00 79 57 62.2 2015-11-18 13:17:03 Pearl Creek Farm
2015-09-26 16:30:00 79 59 63.4 2015-11-18 13:17:03 Pearl Creek Farm
2015-09-26 17:00:00 79 61 64.2 2015-11-18 13:17:03 Pearl Creek Farm
2015-09-26 17:30:00 78 63 64.2 2015-11-18 13:17:03 Pearl Creek Farm
2015-09-26 18:00:00 77 66 64.6 2015-11-18 13:17:03 Pearl Creek Farm
2015-09-26 18:30:00 76 69 64.9 2015-11-18 13:17:03 Pearl Creek Farm
2015-09-26 19:00:00 75 72 65.4 2015-11-18 13:17:03 Pearl Creek Farm
2015-09-26 19:30:00 74 76 66.0 2015-11-18 13:17:03 Pearl Creek Farm
2015-09-26 20:00:00 72 78 64.8 2015-11-18 13:17:03 Pearl Creek Farm
2015-09-26 20:30:00 71 80 64.3 2015-11-18 13:17:03 Pearl Creek Farm
2015-09-26 21:00:00 71 79 64.2 2015-11-18 13:17:03 Pearl Creek Farm
2015-09-26 21:30:00 70 79 63.0 2015-11-18 13:17:03 Pearl Creek Farm
2015-09-26 22:00:00 68 81 61.8 2015-11-18 13:17:03 Pearl Creek Farm
2015-09-26 22:30:00 68 82 62.3 2015-11-18 13:17:03 Pearl Creek Farm
2015-09-26 23:00:00 67 83 61.7 2015-11-18 13:17:03 Pearl Creek Farm
2015-09-26 23:30:00 67 85 62.2 2015-11-18 13:17:03 Pearl Creek Farm

A total of 48 rows are displayed.